sensor_id;sensor_type;location;lat;lon;timestamp;P1;durP1;ratioP1;P2;durP2;ratioP2
80270;SDS011;69573;45.560;10.200;2023-07-28T00:00:29;3.50;;;2.22;;
80270;SDS011;69573;45.560;10.200;2023-07-28T00:02:56;3.08;;;1.90;;
80270;SDS011;69573;45.560;10.200;2023-07-28T00:05:23;3.22;;;2.00;;
80270;SDS011;69573;45.560;10.200;2023-07-28T00:07:49;3.60;;;2.20;;
80270;SDS011;69573;45.560;10.200;2023-07-28T00:10:15;3.10;;;2.03;;
80270;SDS011;69573;45.560;10.200;2023-07-28T00:12:45;3.17;;;2.13;;
80270;SDS011;69573;45.560;10.200;2023-07-28T00:17:37;5.00;;;2.20;;
80270;SDS011;69573;45.560;10.200;2023-07-28T00:20:04;2.85;;;2.20;;
80270;SDS011;69573;45.560;10.200;2023-07-28T00:22:33;3.13;;;2.20;;
80270;SDS011;69573;45.560;10.200;2023-07-28T00:24:59;2.13;;;1.92;;
80270;SDS011;69573;45.560;10.200;2023-07-28T00:27:26;2.83;;;2.22;;
80270;SDS011;69573;45.560;10.200;2023-07-28T00:29:53;2.33;;;2.13;;
80270;SDS011;69573;45.560;10.200;2023-07-28T00:32:19;1.95;;;1.73;;
80270;SDS011;69573;45.560;10.200;2023-07-28T00:34:46;2.65;;;2.17;;
80270;SDS011;69573;45.560;10.200;2023-07-28T00:37:12;2.70;;;2.28;;
80270;SDS011;69573;45.560;10.200;2023-07-28T00:39:39;3.00;;;2.20;;
80270;SDS011;69573;45.560;10.200;2023-07-28T00:42:06;8.85;;;2.20;;
80270;SDS011;69573;45.560;10.200;2023-07-28T00:44:34;6.05;;;2.20;;
80270;SDS011;69573;45.560;10.200;2023-07-28T00:47:00;3.53;;;2.28;;
80270;SDS011;69573;45.560;10.200;2023-07-28T00:49:27;2.33;;;2.13;;
80270;SDS011;69573;45.560;10.200;2023-07-28T00:51:56;2.35;;;1.95;;
80270;SDS011;69573;45.560;10.200;2023-07-28T00:54:23;3.60;;;2.20;;
80270;SDS011;69573;45.560;10.200;2023-07-28T00:56:49;2.28;;;1.98;;
80270;SDS011;69573;45.560;10.200;2023-07-28T00:59:16;5.10;;;2.15;;
80270;SDS011;69573;45.560;10.200;2023-07-28T01:01:42;4.35;;;2.40;;
80270;SDS011;69573;45.560;10.200;2023-07-28T01:04:09;2.60;;;2.20;;
80270;SDS011;69573;45.560;10.200;2023-07-28T01:06:50;5.40;;;2.00;;
80270;SDS011;69573;45.560;10.200;2023-07-28T01:09:21;3.65;;;2.17;;
80270;SDS011;69573;45.560;10.200;2023-07-28T01:11:54;3.15;;;2.00;;
80270;SDS011;69573;45.560;10.200;2023-07-28T01:14:20;2.47;;;1.98;;
80270;SDS011;69573;45.560;10.200;2023-07-28T01:16:46;2.50;;;2.30;;
80270;SDS011;69573;45.560;10.200;2023-07-28T01:19:12;4.85;;;2.00;;
80270;SDS011;69573;45.560;10.200;2023-07-28T01:21:40;4.65;;;2.08;;
80270;SDS011;69573;45.560;10.200;2023-07-28T01:24:28;3.40;;;2.07;;
80270;SDS011;69573;45.560;10.200;2023-07-28T01:26:56;3.20;;;2.35;;
80270;SDS011;69573;45.560;10.200;2023-07-28T01:29:22;2.97;;;2.45;;
80270;SDS011;69573;45.560;10.200;2023-07-28T01:31:50;3.50;;;2.53;;
80270;SDS011;69573;45.560;10.200;2023-07-28T01:34:17;2.72;;;2.28;;
80270;SDS011;69573;45.560;10.200;2023-07-28T01:36:43;3.20;;;2.30;;
80270;SDS011;69573;45.560;10.200;2023-07-28T01:39:10;2.33;;;2.00;;
80270;SDS011;69573;45.560;10.200;2023-07-28T01:41:36;2.55;;;2.17;;
80270;SDS011;69573;45.560;10.200;2023-07-28T01:44:05;4.25;;;2.60;;
80270;SDS011;69573;45.560;10.200;2023-07-28T01:46:32;3.88;;;2.20;;
80270;SDS011;69573;45.560;10.200;2023-07-28T01:48:58;2.40;;;2.13;;
80270;SDS011;69573;45.560;10.200;2023-07-28T01:51:26;3.47;;;2.40;;
80270;SDS011;69573;45.560;10.200;2023-07-28T01:53:52;2.30;;;1.98;;
80270;SDS011;69573;45.560;10.200;2023-07-28T01:56:19;2.42;;;2.10;;
80270;SDS011;69573;45.560;10.200;2023-07-28T01:58:45;2.60;;;2.22;;
80270;SDS011;69573;45.560;10.200;2023-07-28T02:01:12;4.13;;;2.40;;
80270;SDS011;69573;45.560;10.200;2023-07-28T02:03:41;2.80;;;2.25;;
80270;SDS011;69573;45.560;10.200;2023-07-28T02:06:08;2.60;;;2.40;;
80270;SDS011;69573;45.560;10.200;2023-07-28T02:08:35;2.33;;;1.95;;
80270;SDS011;69573;45.560;10.200;2023-07-28T02:11:01;5.75;;;2.53;;
80270;SDS011;69573;45.560;10.200;2023-07-28T02:13:28;3.28;;;2.00;;
80270;SDS011;69573;45.560;10.200;2023-07-28T02:15:54;2.28;;;2.08;;
80270;SDS011;69573;45.560;10.200;2023-07-28T02:18:21;3.67;;;2.30;;
80270;SDS011;69573;45.560;10.200;2023-07-28T02:20:48;3.65;;;2.20;;
80270;SDS011;69573;45.560;10.200;2023-07-28T02:23:17;2.22;;;2.03;;
80270;SDS011;69573;45.560;10.200;2023-07-28T02:25:43;2.30;;;2.10;;
80270;SDS011;69573;45.560;10.200;2023-07-28T02:28:10;2.75;;;1.90;;
80270;SDS011;69573;45.560;10.200;2023-07-28T02:30:37;3.47;;;2.30;;
80270;SDS011;69573;45.560;10.200;2023-07-28T02:33:06;3.70;;;2.00;;
80270;SDS011;69573;45.560;10.200;2023-07-28T02:35:32;4.45;;;2.50;;
80270;SDS011;69573;45.560;10.200;2023-07-28T02:37:59;2.58;;;2.38;;
80270;SDS011;69573;45.560;10.200;2023-07-28T02:40:26;3.15;;;2.25;;
80270;SDS011;69573;45.560;10.200;2023-07-28T02:42:53;4.38;;;2.72;;
80270;SDS011;69573;45.560;10.200;2023-07-28T02:45:19;3.97;;;2.15;;
80270;SDS011;69573;45.560;10.200;2023-07-28T02:47:46;2.95;;;2.08;;
80270;SDS011;69573;45.560;10.200;2023-07-28T02:50:12;3.78;;;2.63;;
80270;SDS011;69573;45.560;10.200;2023-07-28T02:52:39;3.67;;;2.20;;
80270;SDS011;69573;45.560;10.200;2023-07-28T02:55:06;2.47;;;2.22;;
80270;SDS011;69573;45.560;10.200;2023-07-28T02:57:32;2.60;;;2.40;;
80270;SDS011;69573;45.560;10.200;2023-07-28T02:59:59;3.13;;;2.10;;
80270;SDS011;69573;45.560;10.200;2023-07-28T03:02:25;2.38;;;2.10;;
80270;SDS011;69573;45.560;10.200;2023-07-28T03:04:51;2.33;;;2.13;;
80270;SDS011;69573;45.560;10.200;2023-07-28T03:07:17;2.00;;;1.85;;
80270;SDS011;69573;45.560;10.200;2023-07-28T03:09:44;3.97;;;2.20;;
80270;SDS011;69573;45.560;10.200;2023-07-28T03:12:10;2.83;;;2.40;;
80270;SDS011;69573;45.560;10.200;2023-07-28T03:17:06;2.70;;;2.50;;
80270;SDS011;69573;45.560;10.200;2023-07-28T03:19:32;3.30;;;2.40;;
80270;SDS011;69573;45.560;10.200;2023-07-28T03:21:58;2.72;;;2.08;;
80270;SDS011;69573;45.560;10.200;2023-07-28T03:24:28;2.88;;;2.15;;
80270;SDS011;69573;45.560;10.200;2023-07-28T03:26:54;3.97;;;2.42;;
80270;SDS011;69573;45.560;10.200;2023-07-28T03:29:20;3.53;;;2.42;;
80270;SDS011;69573;45.560;10.200;2023-07-28T03:31:47;3.40;;;2.13;;
80270;SDS011;69573;45.560;10.200;2023-07-28T03:34:13;3.03;;;2.20;;
80270;SDS011;69573;45.560;10.200;2023-07-28T03:36:40;3.00;;;2.00;;
80270;SDS011;69573;45.560;10.200;2023-07-28T03:39:06;2.67;;;2.20;;
80270;SDS011;69573;45.560;10.200;2023-07-28T03:41:32;4.80;;;2.50;;
80270;SDS011;69573;45.560;10.200;2023-07-28T03:43:59;3.17;;;2.20;;
80270;SDS011;69573;45.560;10.200;2023-07-28T03:46:25;3.28;;;2.40;;
80270;SDS011;69573;45.560;10.200;2023-07-28T03:48:52;2.88;;;2.38;;
80270;SDS011;69573;45.560;10.200;2023-07-28T03:51:18;3.15;;;2.40;;
80270;SDS011;69573;45.560;10.200;2023-07-28T03:53:44;3.72;;;2.60;;
80270;SDS011;69573;45.560;10.200;2023-07-28T03:56:11;4.95;;;2.20;;
80270;SDS011;69573;45.560;10.200;2023-07-28T03:58:37;2.33;;;2.10;;
80270;SDS011;69573;45.560;10.200;2023-07-28T04:01:03;3.05;;;2.45;;
80270;SDS011;69573;45.560;10.200;2023-07-28T04:03:32;3.50;;;2.40;;
80270;SDS011;69573;45.560;10.200;2023-07-28T04:05:59;3.72;;;2.47;;
80270;SDS011;69573;45.560;10.200;2023-07-28T04:08:25;2.38;;;2.17;;
80270;SDS011;69573;45.560;10.200;2023-07-28T04:10:51;5.80;;;2.60;;
80270;SDS011;69573;45.560;10.200;2023-07-28T04:13:18;3.25;;;2.15;;
80270;SDS011;69573;45.560;10.200;2023-07-28T04:15:44;2.67;;;2.40;;
80270;SDS011;69573;45.560;10.200;2023-07-28T04:18:11;4.68;;;2.92;;
80270;SDS011;69573;45.560;10.200;2023-07-28T04:20:37;2.83;;;2.33;;
80270;SDS011;69573;45.560;10.200;2023-07-28T04:23:04;5.10;;;2.55;;
80270;SDS011;69573;45.560;10.200;2023-07-28T04:25:30;4.13;;;2.55;;
80270;SDS011;69573;45.560;10.200;2023-07-28T04:27:57;4.65;;;2.85;;
80270;SDS011;69573;45.560;10.200;2023-07-28T04:30:23;3.05;;;2.38;;
80270;SDS011;69573;45.560;10.200;2023-07-28T04:32:50;2.67;;;2.30;;
80270;SDS011;69573;45.560;10.200;2023-07-28T04:35:16;2.72;;;2.33;;
80270;SDS011;69573;45.560;10.200;2023-07-28T04:37:42;3.55;;;2.40;;
80270;SDS011;69573;45.560;10.200;2023-07-28T04:40:09;2.88;;;2.35;;
80270;SDS011;69573;45.560;10.200;2023-07-28T04:42:35;3.28;;;2.63;;
80270;SDS011;69573;45.560;10.200;2023-07-28T04:45:02;3.50;;;2.75;;
80270;SDS011;69573;45.560;10.200;2023-07-28T04:47:28;2.95;;;2.65;;
80270;SDS011;69573;45.560;10.200;2023-07-28T04:49:55;2.50;;;2.30;;
80270;SDS011;69573;45.560;10.200;2023-07-28T04:52:21;3.00;;;2.70;;
80270;SDS011;69573;45.560;10.200;2023-07-28T04:54:48;3.17;;;2.40;;
80270;SDS011;69573;45.560;10.200;2023-07-28T04:57:14;3.22;;;2.50;;
80270;SDS011;69573;45.560;10.200;2023-07-28T04:59:43;4.78;;;2.70;;
80270;SDS011;69573;45.560;10.200;2023-07-28T05:02:09;4.13;;;2.53;;
80270;SDS011;69573;45.560;10.200;2023-07-28T05:04:36;3.80;;;2.67;;
80270;SDS011;69573;45.560;10.200;2023-07-28T05:07:03;3.15;;;2.50;;
80270;SDS011;69573;45.560;10.200;2023-07-28T05:09:29;7.35;;;2.60;;
80270;SDS011;69573;45.560;10.200;2023-07-28T05:11:56;2.97;;;2.60;;
80270;SDS011;69573;45.560;10.200;2023-07-28T05:14:22;5.60;;;2.42;;
80270;SDS011;69573;45.560;10.200;2023-07-28T05:16:49;3.42;;;2.60;;
80270;SDS011;69573;45.560;10.200;2023-07-28T05:19:15;3.70;;;2.20;;
80270;SDS011;69573;45.560;10.200;2023-07-28T05:21:42;2.75;;;2.55;;
80270;SDS011;69573;45.560;10.200;2023-07-28T05:24:08;5.13;;;2.60;;
80270;SDS011;69573;45.560;10.200;2023-07-28T05:26:34;3.00;;;2.72;;
80270;SDS011;69573;45.560;10.200;2023-07-28T05:29:01;10.50;;;4.13;;
80270;SDS011;69573;45.560;10.200;2023-07-28T05:31:30;8.25;;;4.30;;
80270;SDS011;69573;45.560;10.200;2023-07-28T05:33:56;10.65;;;3.88;;
80270;SDS011;69573;45.560;10.200;2023-07-28T05:36:23;4.95;;;3.40;;
80270;SDS011;69573;45.560;10.200;2023-07-28T05:38:49;5.22;;;2.83;;
80270;SDS011;69573;45.560;10.200;2023-07-28T05:41:16;6.55;;;3.22;;
80270;SDS011;69573;45.560;10.200;2023-07-28T05:43:42;3.75;;;2.90;;
80270;SDS011;69573;45.560;10.200;2023-07-28T05:46:09;4.82;;;2.65;;
80270;SDS011;69573;45.560;10.200;2023-07-28T05:48:36;3.40;;;2.53;;
80270;SDS011;69573;45.560;10.200;2023-07-28T05:51:02;4.93;;;2.38;;
80270;SDS011;69573;45.560;10.200;2023-07-28T05:53:28;4.47;;;2.50;;
80270;SDS011;69573;45.560;10.200;2023-07-28T05:55:55;4.65;;;2.42;;
80270;SDS011;69573;45.560;10.200;2023-07-28T05:58:22;5.57;;;2.58;;
80270;SDS011;69573;45.560;10.200;2023-07-28T06:00:48;4.88;;;3.05;;
80270;SDS011;69573;45.560;10.200;2023-07-28T06:03:18;4.53;;;2.92;;
80270;SDS011;69573;45.560;10.200;2023-07-28T06:05:45;3.78;;;2.47;;
80270;SDS011;69573;45.560;10.200;2023-07-28T06:08:11;4.10;;;2.88;;
80270;SDS011;69573;45.560;10.200;2023-07-28T06:10:38;3.47;;;2.85;;
80270;SDS011;69573;45.560;10.200;2023-07-28T06:13:05;5.80;;;3.08;;
80270;SDS011;69573;45.560;10.200;2023-07-28T06:15:32;6.43;;;2.95;;
80270;SDS011;69573;45.560;10.200;2023-07-28T06:18:00;8.05;;;3.17;;
80270;SDS011;69573;45.560;10.200;2023-07-28T06:20:27;3.80;;;2.83;;
80270;SDS011;69573;45.560;10.200;2023-07-28T06:22:53;5.18;;;2.55;;
80270;SDS011;69573;45.560;10.200;2023-07-28T06:25:20;6.60;;;2.80;;
80270;SDS011;69573;45.560;10.200;2023-07-28T06:27:46;3.88;;;3.00;;
80270;SDS011;69573;45.560;10.200;2023-07-28T06:30:12;4.68;;;2.40;;
80270;SDS011;69573;45.560;10.200;2023-07-28T06:32:39;5.70;;;2.67;;
80270;SDS011;69573;45.560;10.200;2023-07-28T06:35:05;4.22;;;2.58;;
80270;SDS011;69573;45.560;10.200;2023-07-28T06:37:32;3.83;;;2.70;;
80270;SDS011;69573;45.560;10.200;2023-07-28T06:39:59;10.15;;;3.15;;
80270;SDS011;69573;45.560;10.200;2023-07-28T06:42:25;5.18;;;2.72;;
80270;SDS011;69573;45.560;10.200;2023-07-28T06:44:52;4.35;;;2.30;;
80270;SDS011;69573;45.560;10.200;2023-07-28T06:47:18;5.07;;;3.03;;
80270;SDS011;69573;45.560;10.200;2023-07-28T06:49:44;4.90;;;2.88;;
80270;SDS011;69573;45.560;10.200;2023-07-28T06:52:11;6.65;;;2.75;;
80270;SDS011;69573;45.560;10.200;2023-07-28T06:54:37;5.15;;;2.70;;
80270;SDS011;69573;45.560;10.200;2023-07-28T06:57:04;7.35;;;2.72;;
80270;SDS011;69573;45.560;10.200;2023-07-28T06:59:31;3.33;;;2.60;;
80270;SDS011;69573;45.560;10.200;2023-07-28T07:01:58;4.65;;;2.70;;
80270;SDS011;69573;45.560;10.200;2023-07-28T07:04:24;5.78;;;2.85;;
80270;SDS011;69573;45.560;10.200;2023-07-28T07:06:50;6.03;;;2.83;;
80270;SDS011;69573;45.560;10.200;2023-07-28T07:09:16;5.95;;;2.88;;
80270;SDS011;69573;45.560;10.200;2023-07-28T07:11:42;5.93;;;2.60;;
80270;SDS011;69573;45.560;10.200;2023-07-28T07:14:09;4.22;;;2.70;;
80270;SDS011;69573;45.560;10.200;2023-07-28T07:16:35;4.95;;;2.72;;
80270;SDS011;69573;45.560;10.200;2023-07-28T07:19:01;4.20;;;2.55;;
80270;SDS011;69573;45.560;10.200;2023-07-28T07:21:28;4.88;;;2.63;;
80270;SDS011;69573;45.560;10.200;2023-07-28T07:23:55;3.92;;;2.42;;
80270;SDS011;69573;45.560;10.200;2023-07-28T07:26:21;2.80;;;2.50;;
80270;SDS011;69573;45.560;10.200;2023-07-28T07:28:47;3.17;;;2.47;;
80270;SDS011;69573;45.560;10.200;2023-07-28T07:31:13;3.63;;;2.13;;
80270;SDS011;69573;45.560;10.200;2023-07-28T07:33:40;4.22;;;2.95;;
80270;SDS011;69573;45.560;10.200;2023-07-28T07:36:11;3.92;;;2.90;;
80270;SDS011;69573;45.560;10.200;2023-07-28T07:38:38;2.90;;;2.70;;
80270;SDS011;69573;45.560;10.200;2023-07-28T07:41:11;3.78;;;2.67;;
80270;SDS011;69573;45.560;10.200;2023-07-28T07:43:38;4.63;;;3.22;;
80270;SDS011;69573;45.560;10.200;2023-07-28T07:46:04;4.63;;;2.70;;
80270;SDS011;69573;45.560;10.200;2023-07-28T07:48:30;4.15;;;2.50;;
80270;SDS011;69573;45.560;10.200;2023-07-28T07:50:57;5.07;;;3.15;;
80270;SDS011;69573;45.560;10.200;2023-07-28T07:53:24;4.72;;;2.97;;
80270;SDS011;69573;45.560;10.200;2023-07-28T07:55:50;3.58;;;2.47;;
80270;SDS011;69573;45.560;10.200;2023-07-28T07:58:19;5.13;;;3.05;;
80270;SDS011;69573;45.560;10.200;2023-07-28T08:00:46;6.97;;;3.05;;
80270;SDS011;69573;45.560;10.200;2023-07-28T08:03:12;4.65;;;3.22;;
80270;SDS011;69573;45.560;10.200;2023-07-28T08:05:39;7.32;;;3.10;;
80270;SDS011;69573;45.560;10.200;2023-07-28T08:08:06;4.00;;;2.78;;
80270;SDS011;69573;45.560;10.200;2023-07-28T08:10:33;5.28;;;3.30;;
80270;SDS011;69573;45.560;10.200;2023-07-28T08:13:00;6.32;;;3.85;;
80270;SDS011;69573;45.560;10.200;2023-07-28T08:15:26;4.15;;;3.00;;
80270;SDS011;69573;45.560;10.200;2023-07-28T08:17:53;5.68;;;3.25;;
80270;SDS011;69573;45.560;10.200;2023-07-28T08:20:19;4.93;;;3.50;;
80270;SDS011;69573;45.560;10.200;2023-07-28T08:22:46;6.55;;;3.65;;
80270;SDS011;69573;45.560;10.200;2023-07-28T08:25:12;6.43;;;3.20;;
80270;SDS011;69573;45.560;10.200;2023-07-28T08:27:39;4.53;;;3.30;;
80270;SDS011;69573;45.560;10.200;2023-07-28T08:30:05;6.47;;;2.95;;
80270;SDS011;69573;45.560;10.200;2023-07-28T08:32:33;5.97;;;3.92;;
80270;SDS011;69573;45.560;10.200;2023-07-28T08:34:59;5.80;;;3.95;;
80270;SDS011;69573;45.560;10.200;2023-07-28T08:37:27;6.53;;;3.92;;
80270;SDS011;69573;45.560;10.200;2023-07-28T08:39:53;5.25;;;3.50;;
80270;SDS011;69573;45.560;10.200;2023-07-28T08:42:21;7.93;;;3.67;;
80270;SDS011;69573;45.560;10.200;2023-07-28T08:44:48;6.38;;;4.20;;
80270;SDS011;69573;45.560;10.200;2023-07-28T08:47:17;5.45;;;4.95;;
80270;SDS011;69573;45.560;10.200;2023-07-28T08:49:43;7.32;;;4.15;;
80270;SDS011;69573;45.560;10.200;2023-07-28T08:52:10;6.78;;;4.22;;
80270;SDS011;69573;45.560;10.200;2023-07-28T08:54:36;4.90;;;4.30;;
80270;SDS011;69573;45.560;10.200;2023-07-28T08:57:02;7.80;;;3.75;;
80270;SDS011;69573;45.560;10.200;2023-07-28T08:59:29;5.90;;;3.95;;
80270;SDS011;69573;45.560;10.200;2023-07-28T09:01:56;6.63;;;3.65;;
80270;SDS011;69573;45.560;10.200;2023-07-28T09:04:24;7.38;;;4.38;;
80270;SDS011;69573;45.560;10.200;2023-07-28T09:06:50;4.43;;;4.03;;
80270;SDS011;69573;45.560;10.200;2023-07-28T09:09:18;6.28;;;4.18;;
80270;SDS011;69573;45.560;10.200;2023-07-28T09:14:12;5.85;;;4.05;;
80270;SDS011;69573;45.560;10.200;2023-07-28T09:16:39;5.50;;;3.70;;
80270;SDS011;69573;45.560;10.200;2023-07-28T09:19:06;6.72;;;4.68;;
80270;SDS011;69573;45.560;10.200;2023-07-28T09:21:33;6.70;;;3.75;;
80270;SDS011;69573;45.560;10.200;2023-07-28T09:23:59;6.15;;;3.40;;
80270;SDS011;69573;45.560;10.200;2023-07-28T09:29:17;6.60;;;4.32;;
80270;SDS011;69573;45.560;10.200;2023-07-28T09:31:50;4.75;;;3.50;;
80270;SDS011;69573;45.560;10.200;2023-07-28T09:34:27;4.13;;;3.53;;
80270;SDS011;69573;45.560;10.200;2023-07-28T09:36:54;5.95;;;4.60;;
80270;SDS011;69573;45.560;10.200;2023-07-28T09:39:23;7.22;;;3.60;;
80270;SDS011;69573;45.560;10.200;2023-07-28T09:41:50;4.10;;;3.60;;
80270;SDS011;69573;45.560;10.200;2023-07-28T09:44:17;5.72;;;3.45;;
80270;SDS011;69573;45.560;10.200;2023-07-28T09:49:12;4.60;;;3.30;;
80270;SDS011;69573;45.560;10.200;2023-07-28T09:51:41;5.18;;;3.95;;
80270;SDS011;69573;45.560;10.200;2023-07-28T09:54:17;5.40;;;3.38;;
80270;SDS011;69573;45.560;10.200;2023-07-28T09:56:50;5.97;;;3.70;;
80270;SDS011;69573;45.560;10.200;2023-07-28T09:59:17;6.85;;;3.95;;
80270;SDS011;69573;45.560;10.200;2023-07-28T10:01:44;4.15;;;3.47;;
80270;SDS011;69573;45.560;10.200;2023-07-28T10:04:11;6.55;;;4.00;;
80270;SDS011;69573;45.560;10.200;2023-07-28T10:06:38;9.10;;;4.60;;
80270;SDS011;69573;45.560;10.200;2023-07-28T10:09:04;9.20;;;5.68;;
80270;SDS011;69573;45.560;10.200;2023-07-28T10:11:31;6.05;;;4.78;;
80270;SDS011;69573;45.560;10.200;2023-07-28T10:13:58;8.93;;;4.35;;
80270;SDS011;69573;45.560;10.200;2023-07-28T10:16:36;8.65;;;4.53;;
80270;SDS011;69573;45.560;10.200;2023-07-28T10:19:04;7.13;;;4.45;;
80270;SDS011;69573;45.560;10.200;2023-07-28T10:21:31;5.20;;;4.47;;
80270;SDS011;69573;45.560;10.200;2023-07-28T10:23:58;5.20;;;3.78;;
80270;SDS011;69573;45.560;10.200;2023-07-28T10:26:31;3.90;;;3.45;;
80270;SDS011;69573;45.560;10.200;2023-07-28T10:29:07;6.88;;;4.30;;
80270;SDS011;69573;45.560;10.200;2023-07-28T10:31:36;4.90;;;3.63;;
80270;SDS011;69573;45.560;10.200;2023-07-28T10:34:02;7.82;;;4.97;;
80270;SDS011;69573;45.560;10.200;2023-07-28T10:39:17;6.72;;;4.40;;
80270;SDS011;69573;45.560;10.200;2023-07-28T10:44:28;6.32;;;4.72;;
80270;SDS011;69573;45.560;10.200;2023-07-28T10:46:54;10.20;;;4.85;;
80270;SDS011;69573;45.560;10.200;2023-07-28T10:49:21;6.00;;;4.90;;
80270;SDS011;69573;45.560;10.200;2023-07-28T10:51:47;8.30;;;4.82;;
80270;SDS011;69573;45.560;10.200;2023-07-28T10:54:14;8.85;;;4.90;;
80270;SDS011;69573;45.560;10.200;2023-07-28T10:56:44;8.65;;;5.35;;
80270;SDS011;69573;45.560;10.200;2023-07-28T10:59:11;7.32;;;5.35;;
80270;SDS011;69573;45.560;10.200;2023-07-28T11:01:38;7.90;;;5.20;;
80270;SDS011;69573;45.560;10.200;2023-07-28T11:06:43;12.15;;;4.78;;
80270;SDS011;69573;45.560;10.200;2023-07-28T11:09:10;8.10;;;4.70;;
80270;SDS011;69573;45.560;10.200;2023-07-28T11:11:37;7.72;;;4.65;;
80270;SDS011;69573;45.560;10.200;2023-07-28T11:14:06;8.85;;;4.43;;
80270;SDS011;69573;45.560;10.200;2023-07-28T11:16:37;5.30;;;4.45;;
80270;SDS011;69573;45.560;10.200;2023-07-28T11:19:07;8.15;;;5.15;;
80270;SDS011;69573;45.560;10.200;2023-07-28T11:21:38;8.02;;;4.60;;
80270;SDS011;69573;45.560;10.200;2023-07-28T11:24:04;9.73;;;4.70;;
80270;SDS011;69573;45.560;10.200;2023-07-28T11:26:31;5.80;;;4.38;;
80270;SDS011;69573;45.560;10.200;2023-07-28T11:28:58;9.35;;;4.57;;
80270;SDS011;69573;45.560;10.200;2023-07-28T11:31:25;5.45;;;4.00;;
80270;SDS011;69573;45.560;10.200;2023-07-28T11:33:51;5.25;;;4.70;;
80270;SDS011;69573;45.560;10.200;2023-07-28T11:36:23;7.38;;;4.00;;
80270;SDS011;69573;45.560;10.200;2023-07-28T11:38:51;6.75;;;4.32;;
80270;SDS011;69573;45.560;10.200;2023-07-28T11:41:17;6.20;;;4.03;;
80270;SDS011;69573;45.560;10.200;2023-07-28T11:43:44;6.72;;;4.32;;
80270;SDS011;69573;45.560;10.200;2023-07-28T11:46:34;5.20;;;3.65;;
80270;SDS011;69573;45.560;10.200;2023-07-28T11:51:39;8.15;;;4.43;;
80270;SDS011;69573;45.560;10.200;2023-07-28T11:54:08;5.32;;;4.03;;
80270;SDS011;69573;45.560;10.200;2023-07-28T11:56:36;5.10;;;3.95;;
80270;SDS011;69573;45.560;10.200;2023-07-28T11:59:02;8.68;;;3.95;;
80270;SDS011;69573;45.560;10.200;2023-07-28T12:01:29;7.60;;;4.22;;
80270;SDS011;69573;45.560;10.200;2023-07-28T12:03:55;8.18;;;3.55;;
80270;SDS011;69573;45.560;10.200;2023-07-28T12:06:23;6.63;;;3.95;;
80270;SDS011;69573;45.560;10.200;2023-07-28T12:08:50;8.93;;;4.30;;
80270;SDS011;69573;45.560;10.200;2023-07-28T12:11:16;5.28;;;4.13;;
80270;SDS011;69573;45.560;10.200;2023-07-28T12:13:52;6.90;;;4.57;;
80270;SDS011;69573;45.560;10.200;2023-07-28T12:16:32;4.70;;;3.78;;
80270;SDS011;69573;45.560;10.200;2023-07-28T12:18:58;6.35;;;3.72;;
80270;SDS011;69573;45.560;10.200;2023-07-28T12:21:24;5.82;;;3.33;;
80270;SDS011;69573;45.560;10.200;2023-07-28T12:23:51;6.03;;;4.40;;
80270;SDS011;69573;45.560;10.200;2023-07-28T12:26:17;7.40;;;3.92;;
80270;SDS011;69573;45.560;10.200;2023-07-28T12:28:44;5.15;;;3.13;;
80270;SDS011;69573;45.560;10.200;2023-07-28T12:31:11;6.53;;;3.70;;
80270;SDS011;69573;45.560;10.200;2023-07-28T12:33:37;8.25;;;4.00;;
80270;SDS011;69573;45.560;10.200;2023-07-28T12:36:03;11.30;;;3.88;;
80270;SDS011;69573;45.560;10.200;2023-07-28T12:38:31;4.72;;;3.35;;
80270;SDS011;69573;45.560;10.200;2023-07-28T12:40:57;5.38;;;3.75;;
80270;SDS011;69573;45.560;10.200;2023-07-28T12:43:24;7.13;;;4.00;;
80270;SDS011;69573;45.560;10.200;2023-07-28T12:45:51;9.00;;;4.10;;
80270;SDS011;69573;45.560;10.200;2023-07-28T12:48:18;6.88;;;4.05;;
80270;SDS011;69573;45.560;10.200;2023-07-28T12:50:44;4.25;;;3.85;;
80270;SDS011;69573;45.560;10.200;2023-07-28T12:53:11;6.78;;;4.10;;
80270;SDS011;69573;45.560;10.200;2023-07-28T12:55:37;5.63;;;4.05;;
80270;SDS011;69573;45.560;10.200;2023-07-28T12:58:04;6.20;;;3.63;;
80270;SDS011;69573;45.560;10.200;2023-07-28T13:00:31;4.40;;;4.00;;
80270;SDS011;69573;45.560;10.200;2023-07-28T13:02:58;4.25;;;3.53;;
80270;SDS011;69573;45.560;10.200;2023-07-28T13:05:25;5.13;;;3.30;;
80270;SDS011;69573;45.560;10.200;2023-07-28T13:07:52;3.88;;;3.42;;
80270;SDS011;69573;45.560;10.200;2023-07-28T13:10:18;9.93;;;3.30;;
80270;SDS011;69573;45.560;10.200;2023-07-28T13:12:44;7.10;;;3.17;;
80270;SDS011;69573;45.560;10.200;2023-07-28T13:15:11;7.47;;;3.65;;
80270;SDS011;69573;45.560;10.200;2023-07-28T13:17:37;4.25;;;2.83;;
80270;SDS011;69573;45.560;10.200;2023-07-28T13:20:03;6.35;;;2.90;;
80270;SDS011;69573;45.560;10.200;2023-07-28T13:22:30;6.35;;;3.22;;
80270;SDS011;69573;45.560;10.200;2023-07-28T13:24:56;6.90;;;3.03;;
80270;SDS011;69573;45.560;10.200;2023-07-28T13:27:22;4.82;;;2.92;;
80270;SDS011;69573;45.560;10.200;2023-07-28T13:29:49;3.45;;;3.00;;
80270;SDS011;69573;45.560;10.200;2023-07-28T13:32:16;7.32;;;3.00;;
80270;SDS011;69573;45.560;10.200;2023-07-28T13:34:42;4.20;;;3.42;;
80270;SDS011;69573;45.560;10.200;2023-07-28T13:37:08;3.38;;;3.08;;
80270;SDS011;69573;45.560;10.200;2023-07-28T13:39:35;7.68;;;3.15;;
80270;SDS011;69573;45.560;10.200;2023-07-28T13:42:01;10.05;;;3.00;;
80270;SDS011;69573;45.560;10.200;2023-07-28T13:44:28;3.80;;;2.80;;
80270;SDS011;69573;45.560;10.200;2023-07-28T13:46:54;3.83;;;2.63;;
80270;SDS011;69573;45.560;10.200;2023-07-28T13:49:21;3.50;;;3.20;;
80270;SDS011;69573;45.560;10.200;2023-07-28T13:51:48;5.28;;;3.30;;
80270;SDS011;69573;45.560;10.200;2023-07-28T13:54:15;7.97;;;3.50;;
80270;SDS011;69573;45.560;10.200;2023-07-28T13:56:41;5.00;;;2.65;;
80270;SDS011;69573;45.560;10.200;2023-07-28T13:59:08;4.22;;;2.90;;
80270;SDS011;69573;45.560;10.200;2023-07-28T14:01:34;5.93;;;2.83;;
80270;SDS011;69573;45.560;10.200;2023-07-28T14:04:01;6.57;;;3.17;;
80270;SDS011;69573;45.560;10.200;2023-07-28T14:06:27;6.03;;;3.38;;
80270;SDS011;69573;45.560;10.200;2023-07-28T14:08:54;4.93;;;3.10;;
80270;SDS011;69573;45.560;10.200;2023-07-28T14:11:20;7.70;;;3.38;;
80270;SDS011;69573;45.560;10.200;2023-07-28T14:13:47;7.97;;;3.42;;
80270;SDS011;69573;45.560;10.200;2023-07-28T14:16:13;5.90;;;3.10;;
80270;SDS011;69573;45.560;10.200;2023-07-28T14:18:41;6.75;;;3.83;;
80270;SDS011;69573;45.560;10.200;2023-07-28T14:21:07;6.53;;;2.92;;
80270;SDS011;69573;45.560;10.200;2023-07-28T14:23:35;4.65;;;2.60;;
80270;SDS011;69573;45.560;10.200;2023-07-28T14:26:01;5.63;;;3.13;;
80270;SDS011;69573;45.560;10.200;2023-07-28T14:28:28;4.88;;;3.08;;
80270;SDS011;69573;45.560;10.200;2023-07-28T14:30:54;3.88;;;3.15;;
80270;SDS011;69573;45.560;10.200;2023-07-28T14:33:21;4.80;;;3.05;;
80270;SDS011;69573;45.560;10.200;2023-07-28T14:35:48;5.22;;;3.70;;
80270;SDS011;69573;45.560;10.200;2023-07-28T14:38:14;6.60;;;3.70;;
80270;SDS011;69573;45.560;10.200;2023-07-28T14:40:41;10.38;;;3.72;;
80270;SDS011;69573;45.560;10.200;2023-07-28T14:43:09;5.77;;;2.90;;
80270;SDS011;69573;45.560;10.200;2023-07-28T14:45:35;4.70;;;3.50;;
80270;SDS011;69573;45.560;10.200;2023-07-28T14:48:02;6.07;;;3.20;;
80270;SDS011;69573;45.560;10.200;2023-07-28T14:50:28;4.25;;;3.25;;
80270;SDS011;69573;45.560;10.200;2023-07-28T14:52:57;6.68;;;3.55;;
80270;SDS011;69573;45.560;10.200;2023-07-28T14:55:24;6.88;;;3.45;;